Time;durP1;ratioP1;P1;durP2;ratioP2;P2;SDS_P1;SDS_P2;PMS_P1;PMS_P2;Temp;Humidity;BMP_temperature;BMP_pressure;BME280_temperature;BME280_humidity;BME280_pressure;Samples;Min_cycle;Max_cycle;Signal;HPM_P1;HPM_P2
2021/04/09 00:06:16;;;;;;;24.93;11.47;;;;;;;-2.63;78.48;100115.41;470908;1170;114743;-71
2021/04/09 00:16:19;;;;;;;18.65;10.30;;;;;;;-2.67;78.71;100117.95;471753;1171;117223;-71
2021/04/09 00:26:24;;;;;;;18.90;10.50;;;;;;;-2.75;78.86;100116.27;462979;1171;10002026;-68
2021/04/09 00:36:28;;;;;;;19.60;10.87;;;;;;;-2.65;79.27;100117.13;470872;1170;115453;-70
2021/04/09 00:46:31;;;;;;;22.65;12.50;;;;;;;-2.70;79.24;100122.27;471686;1173;115290;-70
2021/04/09 00:56:36;;;;;;;16.30;11.00;;;;;;;-2.74;79.23;100121.41;471037;1170;114859;-70
2021/04/09 01:06:40;;;;;;;22.45;11.65;;;;;;;-2.91;79.47;100117.98;471238;1171;114752;-69
2021/04/09 01:16:48;;;;;;;19.30;11.20;;;;;;;-3.09;79.62;100117.14;471329;1170;115572;-69
2021/04/09 01:27:32;;;;;;;16.35;10.05;;;;;;;-3.21;79.76;100123.11;471680;1170;114624;-69
2021/04/09 01:37:41;;;;;;;18.63;11.97;;;;;;;-3.28;79.68;100129.95;471728;1170;114448;-70
2021/04/09 01:47:45;;;;;;;18.10;11.45;;;;;;;-3.43;79.67;100115.38;471325;1171;114570;-70
2021/04/09 01:57:51;;;;;;;18.50;10.45;;;;;;;-3.38;80.26;100108.55;471549;1171;116245;-71
2021/04/09 02:07:58;;;;;;;15.13;9.57;;;;;;;-3.40;80.20;100105.13;471684;1171;114797;-70
2021/04/09 02:18:01;;;;;;;15.97;11.73;;;;;;;-3.31;80.94;100099.14;471861;1170;114527;-70
2021/04/09 02:28:06;;;;;;;21.80;12.87;;;;;;;-3.36;80.50;100098.26;471544;1171;114415;-69
2021/04/09 02:38:10;;;;;;;14.27;10.47;;;;;;;-3.46;80.63;100102.53;471609;1171;114486;-69
2021/04/09 02:48:15;;;;;;;17.30;10.10;;;;;;;-3.48;80.96;100101.68;471339;1171;115510;-69
2021/04/09 02:58:20;;;;;;;29.63;17.57;;;;;;;-3.46;80.70;100091.39;471843;1170;114561;-71
2021/04/09 03:08:24;;;;;;;19.88;10.98;;;;;;;-3.56;81.01;100091.41;471645;1171;114778;-69
2021/04/09 03:18:30;;;;;;;20.83;11.80;;;;;;;-3.59;80.92;100088.80;471353;1171;114644;-70
2021/04/09 03:28:35;;;;;;;21.07;11.77;;;;;;;-3.61;81.32;100082.81;471647;1171;115228;-68
2021/04/09 03:38:39;;;;;;;21.40;12.40;;;;;;;-3.62;81.44;100073.41;471393;1170;115718;-70
2021/04/09 03:48:43;;;;;;;20.40;10.30;;;;;;;-3.61;81.64;100075.11;471429;1171;114560;-70
2021/04/09 03:58:46;;;;;;;22.25;13.95;;;;;;;-3.54;81.40;100070.84;471356;1171;114420;-68
2021/04/09 04:08:50;;;;;;;20.70;11.90;;;;;;;-3.42;81.56;100058.02;470545;1165;114826;-70
2021/04/09 04:18:55;;;;;;;16.97;11.33;;;;;;;-3.17;81.32;100057.19;471326;1170;114659;-70
2021/04/09 04:28:59;;;;;;;17.35;10.20;;;;;;;-2.78;81.02;100052.84;469985;1171;114872;-68
2021/04/09 04:39:04;;;;;;;20.10;10.60;;;;;;;-2.26;80.14;100056.15;471806;1171;114759;-71
2021/04/09 04:49:08;;;;;;;22.30;12.00;;;;;;;-1.67;79.59;100054.98;471921;1170;114472;-71
2021/04/09 04:59:12;;;;;;;16.75;10.20;;;;;;;-0.98;78.74;100048.47;470872;1171;114378;-70
2021/04/09 05:09:16;;;;;;;19.85;11.15;;;;;;;-0.19;76.99;100045.03;471690;1170;114430;-69
2021/04/09 05:19:20;;;;;;;18.00;10.57;;;;;;;1.33;75.43;100038.40;471729;1170;114363;-63
2021/04/09 05:29:24;;;;;;;11.07;9.53;;;;;;;9.49;72.27;100022.83;471179;1170;114615;-64
2021/04/09 05:39:27;;;;;;;14.67;9.57;;;;;;;15.49;61.92;100001.81;470896;1170;114187;-63
2021/04/09 05:49:32;;;;;;;17.60;11.33;;;;;;;19.74;54.84;99990.03;470662;1170;115149;-63
2021/04/09 05:59:36;;;;;;;14.90;11.40;;;;;;;22.37;49.05;99976.88;486619;1171;114647;-62
2021/04/09 06:09:40;;;;;;;13.70;9.30;;;;;;;25.84;44.62;99974.09;473299;1171;114730;-62
2021/04/09 06:19:47;;;;;;;10.03;8.90;;;;;;;27.76;40.13;99956.26;471207;1170;114451;-64
2021/04/09 06:29:51;;;;;;;9.70;8.63;;;;;;;28.92;35.25;99954.31;471253;1171;114451;-64
2021/04/09 06:39:55;;;;;;;9.80;7.80;;;;;;;29.47;31.85;99945.03;471415;1171;114442;-63
2021/04/09 06:49:59;;;;;;;9.60;8.60;;;;;;;30.97;29.55;99941.03;471541;1171;114697;-63
2021/04/09 07:00:10;;;;;;;10.80;7.30;;;;;;;31.23;27.23;99930.14;471309;1171;114294;-63
2021/04/09 07:10:14;;;;;;;7.63;6.33;;;;;;;31.82;25.58;99929.60;471562;1169;114220;-72
2021/04/09 07:20:21;;;;;;;9.70;7.20;;;;;;;32.72;23.94;99913.31;470795;1172;114354;-70
2021/04/09 07:30:27;;;;;;;7.77;6.00;;;;;;;33.44;23.07;99907.73;470018;1172;114918;-72
2021/04/09 07:40:33;;;;;;;6.98;6.23;;;;;;;33.64;21.04;99899.98;471101;1170;114742;-72
2021/04/09 07:50:42;;;;;;;8.10;6.70;;;;;;;33.64;19.91;99883.64;471398;1171;114279;-71
2021/04/09 08:00:47;;;;;;;9.10;6.37;;;;;;;34.18;18.84;99867.93;471254;1170;114461;-70
2021/04/09 08:10:51;;;;;;;7.23;4.60;;;;;;;34.00;17.76;99856.23;471225;1170;114446;-71
2021/04/09 08:20:55;;;;;;;10.83;6.07;;;;;;;33.51;17.35;99841.22;471429;1170;114507;-70
2021/04/09 08:31:00;;;;;;;8.43;4.60;;;;;;;31.11;17.19;99837.84;471168;1170;114698;-71
2021/04/09 08:41:07;;;;;;;6.77;5.17;;;;;;;21.80;19.17;99831.45;470202;1170;114441;-64
2021/04/09 08:51:12;;;;;;;6.70;4.35;;;;;;;16.72;22.78;99834.73;470211;1170;114174;-61
2021/04/09 09:01:18;;;;;;;6.07;3.63;;;;;;;13.90;25.22;99837.59;471030;1170;113971;-62
2021/04/09 09:11:53;;;;;;;4.30;3.03;;;;;;;12.44;26.72;99824.94;471233;1170;115130;-64
2021/04/09 09:22:11;;;;;;;3.50;2.90;;;;;;;11.67;27.71;99817.70;471289;1171;114452;-64
2021/04/09 09:32:31;;;;;;;6.20;3.77;;;;;;;11.28;29.02;99799.14;471423;1171;114265;-70
2021/04/09 09:42:45;;;;;;;5.10;3.40;;;;;;;11.16;29.32;99787.61;471412;1171;114138;-64
2021/04/09 09:52:56;;;;;;;13.90;4.53;;;;;;;10.97;30.93;99787.92;471241;1171;114434;-63
2021/04/09 10:03:11;;;;;;;8.05;4.90;;;;;;;10.85;30.28;99773.77;471291;1170;114485;-62
2021/04/09 10:13:17;;;;;;;6.80;3.80;;;;;;;10.76;30.54;99767.30;471610;1171;114280;-65
2021/04/09 10:23:25;;;;;;;6.90;4.00;;;;;;;10.36;31.52;99753.05;471835;1171;114045;-64
2021/04/09 10:33:39;;;;;;;5.30;4.07;;;;;;;10.49;32.32;99749.70;471818;1170;114509;-64
2021/04/09 10:43:43;;;;;;;5.70;3.90;;;;;;;10.64;32.07;99729.53;471837;1171;114870;-63
2021/04/09 10:53:54;;;;;;;6.75;4.30;;;;;;;10.96;32.22;99712.68;471264;1171;114416;-64
2021/04/09 11:04:00;;;;;;;5.13;3.10;;;;;;;11.04;31.71;99698.10;471424;1170;114901;-64
2021/04/09 11:14:07;;;;;;;5.53;3.33;;;;;;;11.51;31.59;99697.72;471989;1171;114042;-64
2021/04/09 11:24:12;;;;;;;8.20;3.50;;;;;;;11.74;31.08;99683.05;471466;1171;114867;-63
2021/04/09 11:34:16;;;;;;;4.50;3.20;;;;;;;11.73;31.52;99677.88;471723;1171;114063;-66
2021/04/09 11:44:30;;;;;;;3.77;3.03;;;;;;;11.55;31.79;99658.92;471733;1171;114067;-71
2021/04/09 11:54:34;;;;;;;6.70;3.60;;;;;;;11.59;31.83;99650.72;471948;1171;114142;-66
2021/04/09 12:04:39;;;;;;;5.45;3.55;;;;;;;11.19;32.13;99640.22;473305;1171;114495;-62
2021/04/09 12:15:04;;;;;;;7.65;4.05;;;;;;;11.15;32.37;99625.61;486619;1170;114324;-63
2021/04/09 12:25:10;;;;;;;5.83;4.33;;;;;;;11.26;32.27;99614.41;475747;1171;114008;-64
2021/04/09 12:35:15;;;;;;;4.53;3.57;;;;;;;11.05;32.69;99591.23;471443;1170;114626;-65
2021/04/09 12:45:19;;;;;;;4.80;3.60;;;;;;;10.99;33.04;99581.11;471237;1170;115317;-62
2021/04/09 12:55:23;;;;;;;7.93;3.07;;;;;;;11.03;32.74;99575.55;455902;1171;20002282;-65
2021/04/09 13:05:29;;;;;;;3.40;2.85;;;;;;;11.25;33.46;99565.38;471073;1170;115729;-65
2021/04/09 13:15:33;;;;;;;12.03;4.50;;;;;;;11.70;32.37;99541.31;471616;1170;114226;-68
2021/04/09 13:25:37;;;;;;;7.60;4.23;;;;;;;11.98;32.42;99534.10;471466;1170;114059;-67
2021/04/09 13:35:41;;;;;;;4.60;3.20;;;;;;;11.69;31.65;99523.86;472634;1170;114145;-70
2021/04/09 13:45:47;;;;;;;6.63;4.73;;;;;;;11.57;31.50;99507.98;470336;1171;114208;-67
2021/04/09 13:55:51;;;;;;;10.70;6.45;;;;;;;11.76;31.79;99496.16;471474;1170;114721;-68
2021/04/09 14:05:56;;;;;;;8.07;5.20;;;;;;;11.61;31.87;99487.58;471523;1171;114399;-68
2021/04/09 14:16:00;;;;;;;18.17;6.50;;;;;;;11.76;32.43;99483.86;471440;1170;114061;-66
2021/04/09 14:26:04;;;;;;;6.40;4.93;;;;;;;12.04;32.43;99474.01;471396;1170;114590;-65
2021/04/09 14:36:09;;;;;;;8.73;4.57;;;;;;;11.94;32.52;99470.33;474838;1170;116715;-62
2021/04/09 14:46:13;;;;;;;5.90;5.10;;;;;;;11.75;32.69;99469.03;472447;1170;114426;-64
2021/04/09 14:56:17;;;;;;;12.53;6.00;;;;;;;11.74;32.88;99456.83;472704;1170;114731;-61
2021/04/09 15:06:21;;;;;;;6.37;5.70;;;;;;;11.73;33.36;99464.81;472526;1171;115155;-62
2021/04/09 15:16:25;;;;;;;4.93;4.20;;;;;;;11.38;33.38;99460.25;463904;1169;10001724;-60
2021/04/09 15:26:29;;;;;;;7.65;5.50;;;;;;;11.48;33.37;99449.00;471707;1171;114422;-62
2021/04/09 15:36:33;;;;;;;8.60;6.10;;;;;;;11.46;33.37;99456.13;471711;1170;114068;-63
2021/04/09 15:46:37;;;;;;;8.50;4.70;;;;;;;11.37;33.38;99448.05;471426;1170;114081;-61
2021/04/09 15:56:41;;;;;;;11.30;6.30;;;;;;;11.12;33.67;99444.50;471332;1171;114118;-61
2021/04/09 16:06:44;;;;;;;8.97;6.40;;;;;;;10.86;34.21;99444.50;471710;1171;114472;-62
2021/04/09 16:16:48;;;;;;;10.77;5.20;;;;;;;10.62;34.28;99445.20;471287;1170;113954;-63
2021/04/09 16:26:57;;;;;;;8.35;5.40;;;;;;;10.34;34.42;99452.23;471158;1170;114468;-59
2021/04/09 16:37:01;;;;;;;9.90;6.37;;;;;;;10.17;34.97;99432.34;471714;1170;114089;-59
2021/04/09 16:47:07;;;;;;;9.47;6.03;;;;;;;9.94;35.30;99432.89;471441;1170;114432;-60
2021/04/09 16:57:12;;;;;;;12.30;6.57;;;;;;;9.60;35.57;99437.66;471242;1170;114251;-59
2021/04/09 17:07:16;;;;;;;14.10;8.40;;;;;;;9.18;36.32;99427.11;470841;1171;114407;-58
2021/04/09 17:17:20;;;;;;;13.87;8.97;;;;;;;8.72;37.19;99429.88;471290;1170;114667;-60
2021/04/09 17:27:24;;;;;;;13.85;8.55;;;;;;;8.35;37.00;99431.02;471327;1171;114363;-59
2021/04/09 17:37:30;;;;;;;15.40;8.53;;;;;;;8.03;37.77;99436.33;471897;1171;114322;-58
2021/04/09 17:47:35;;;;;;;23.17;19.47;;;;;;;7.65;38.22;99434.05;470141;1171;114455;-59
2021/04/09 17:57:39;;;;;;;13.57;8.40;;;;;;;7.27;38.83;99445.61;470530;1171;114429;-63
2021/04/09 18:07:43;;;;;;;23.35;14.35;;;;;;;6.96;39.36;99450.67;463112;1171;10113183;-58
2021/04/09 18:17:47;;;;;;;20.50;12.35;;;;;;;6.70;39.42;99446.80;471257;1170;114724;-58
2021/04/09 18:27:55;;;;;;;27.37;14.03;;;;;;;6.51;40.23;99447.70;471863;1170;114192;-59
2021/04/09 18:37:58;;;;;;;48.13;27.60;;;;;;;6.30;40.47;99450.45;471868;1170;114158;-59
2021/04/09 18:48:04;;;;;;;35.17;20.50;;;;;;;6.07;41.24;99454.17;471543;1170;114020;-58
2021/04/09 18:58:08;;;;;;;36.50;21.10;;;;;;;5.96;41.53;99452.03;470947;1171;114267;-59
2021/04/09 19:08:11;;;;;;;33.80;18.65;;;;;;;5.82;41.90;99451.84;470928;1171;114452;-66
2021/04/09 19:18:15;;;;;;;32.17;19.87;;;;;;;5.69;42.50;99451.55;471312;1171;115387;-71
2021/04/09 19:28:19;;;;;;;30.20;16.80;;;;;;;5.55;43.03;99442.62;470467;1171;114098;-70
2021/04/09 19:38:24;;;;;;;38.55;22.25;;;;;;;5.42;43.15;99438.88;471565;1169;113859;-71
2021/04/09 19:48:28;;;;;;;28.87;17.03;;;;;;;5.22;43.88;99439.78;471543;1169;115690;-74
2021/04/09 19:58:32;;;;;;;29.53;18.73;;;;;;;4.99;44.53;99437.27;471363;1171;114405;-66
2021/04/09 20:08:56;;;;;;;31.50;17.63;;;;;;;4.90;44.79;99427.24;471327;1170;114157;-73
2021/04/09 20:19:01;;;;;;;28.10;15.35;;;;;;;4.71;45.14;99420.25;471578;1171;114408;-69
2021/04/09 20:29:05;;;;;;;22.63;15.07;;;;;;;4.55;45.68;99416.59;471419;1170;114304;-60
2021/04/09 20:39:09;;;;;;;28.67;16.47;;;;;;;4.41;45.96;99423.21;471279;1170;113982;-60
2021/04/09 20:49:13;;;;;;;26.70;15.50;;;;;;;4.35;46.38;99418.28;471089;1171;113986;-64
2021/04/09 20:59:17;;;;;;;22.45;14.10;;;;;;;4.35;46.76;99402.69;471134;1170;114389;-64
2021/04/09 21:09:20;;;;;;;28.60;14.05;;;;;;;4.31;47.08;99401.96;471385;1171;114227;-64
2021/04/09 21:19:25;;;;;;;25.80;14.10;;;;;;;4.31;47.22;99391.56;471381;1171;114580;-65
2021/04/09 21:29:28;;;;;;;21.10;12.80;;;;;;;4.35;47.68;99394.89;472260;1171;114724;-63
2021/04/09 21:39:33;;;;;;;20.55;11.90;;;;;;;4.25;47.98;99384.00;471915;1170;114938;-64
2021/04/09 21:49:36;;;;;;;22.27;12.80;;;;;;;4.20;47.97;99391.16;471366;1171;114175;-65
2021/04/09 21:59:40;;;;;;;25.67;13.97;;;;;;;4.19;48.38;99381.67;471363;1170;114111;-58
2021/04/09 22:09:44;;;;;;;25.95;13.85;;;;;;;4.05;48.34;99372.70;469659;1170;115782;-62
2021/04/09 22:19:48;;;;;;;22.35;12.05;;;;;;;3.96;48.69;99373.06;463411;1169;10001088;-61
2021/04/09 22:29:52;;;;;;;20.13;12.13;;;;;;;3.83;49.55;99359.70;476598;1171;114699;-61
2021/04/09 22:39:56;;;;;;;21.83;11.60;;;;;;;3.69;49.85;99355.05;471637;1171;114395;-62
2021/04/09 22:50:00;;;;;;;20.30;13.27;;;;;;;3.69;49.62;99357.64;471406;1170;115492;-61
2021/04/09 23:00:08;;;;;;;23.83;13.33;;;;;;;3.65;50.15;99350.89;471114;1171;114524;-61
2021/04/09 23:10:13;;;;;;;22.07;14.47;;;;;;;3.54;50.68;99338.34;463272;1171;10003831;-63
2021/04/09 23:20:18;;;;;;;22.30;13.45;;;;;;;3.45;50.94;99333.51;473186;1170;114721;-61
2021/04/09 23:30:23;;;;;;;24.95;13.80;;;;;;;3.35;51.21;99343.41;471119;1170;114385;-61
2021/04/09 23:40:32;;;;;;;27.25;15.60;;;;;;;3.29;51.62;99328.06;471368;1171;114384;-61
2021/04/09 23:50:36;;;;;;;21.27;13.20;;;;;;;3.22;51.26;99324.85;471355;1170;114963;-61
